WXM80 ListenWXM80 Stop

You find our weather info also at:

UK Metoffice

WeatherCloud

Weather Underground

Northeastern Weather Network

AWEKAS

Citizen Weather Observer Program (CWOP)

HAMweather, WeatherForYou, PWS Weather


Weather Underground History page Text

Daily Summary for January 24, 2018 Units:  Both    English   Metric
« Previous Day
Next Day »
Daily Weekly Monthly Yearly Custom
  High: Low: Average:
Temperature: 42.5 °F /  5.8 °C 28.1 °F /  -2.2 °C 37.5 °F /  3.1 °C
Dew Point: 34.0 °F /  1.1 °C 18.1 °F /  -7.7 °C 26.8 °F /  -2.9 °C
Humidity: 75 % 55 % 65 %
Wind Speed: 11.6 mph /  18.7 km/h - 5.6 mph /  9 km/h
Wind Gust: 21.0 mph /  33.8 km/h - -
Wind:- - WNW
Pressure: 29.91 in /  1012.8 hPa 29.47 in /  997.9 hPa -
Precipitation: 0.00 in /  0 mm    
Historical Graphs
 
 
Tabular Data for January 24, 2018
Time Temperature Dew Point Pressure Wind Wind Speed Wind Gust Humidity Rainfall Rate (Hourly)
00:07 41.9 °F /  5.5 °C 33.9 °F /  1.1 °C 29.47 in /  997.9 hPa SW 4.2 mph /  6.8 km/h 8.0 mph /  12.9 km/h 73 % 0.00 in /  0 mm
00:12 41.8 °F /  5.4 °C 33.4 °F /  0.8 °C 29.47 in /  997.9 hPa SW 5.8 mph /  9.3 km/h 12.7 mph /  20.4 km/h 72 % 0.00 in /  0 mm
00:17 41.8 °F /  5.4 °C 33.8 °F /  1 °C 29.47 in /  997.9 hPa WSW 2.6 mph /  4.2 km/h 8.1 mph /  13 km/h 73 % 0.00 in /  0 mm
00:22 41.7 °F /  5.4 °C 33.7 °F /  0.9 °C 29.47 in /  997.9 hPa SW 5.9 mph /  9.5 km/h 10.4 mph /  16.7 km/h 73 % 0.00 in /  0 mm
00:27 41.6 °F /  5.3 °C 33.6 °F /  0.9 °C 29.48 in /  998.2 hPa SW 5.2 mph /  8.4 km/h 8.1 mph /  13 km/h 73 % 0.00 in /  0 mm
00:32 41.5 °F /  5.3 °C 33.8 °F /  1 °C 29.48 in /  998.2 hPa West 4.3 mph /  6.9 km/h 8.1 mph /  13 km/h 74 % 0.00 in /  0 mm
00:37 41.5 °F /  5.3 °C 33.8 °F /  1 °C 29.47 in /  997.9 hPa SW 5.9 mph /  9.5 km/h 12.0 mph /  19.3 km/h 74 % 0.00 in /  0 mm
00:42 41.4 °F /  5.2 °C 33.7 °F /  0.9 °C 29.48 in /  998.2 hPa WSW 4.9 mph /  7.9 km/h 8.1 mph /  13 km/h 74 % 0.00 in /  0 mm
00:48 41.3 °F /  5.2 °C 33.6 °F /  0.9 °C 29.47 in /  997.9 hPa SW 3.5 mph /  5.6 km/h 6.9 mph /  11.1 km/h 74 % 0.00 in /  0 mm
00:53 41.3 °F /  5.2 °C 34.0 °F /  1.1 °C 29.47 in /  997.9 hPa West 6.5 mph /  10.5 km/h 10.4 mph /  16.7 km/h 75 % 0.00 in /  0 mm
01:03 41.1 °F /  5.1 °C 33.4 °F /  0.8 °C 29.47 in /  997.9 hPa West 4.4 mph /  7.1 km/h 9.2 mph /  14.8 km/h 74 % 0.00 in /  0 mm
01:08 41.1 °F /  5.1 °C 33.4 °F /  0.8 °C 29.47 in /  997.9 hPa WSW 2.4 mph /  3.9 km/h 5.8 mph /  9.3 km/h 74 % 0.00 in /  0 mm
01:13 41.0 °F /  5 °C 33.3 °F /  0.7 °C 29.47 in /  997.9 hPa WSW 3.6 mph /  5.8 km/h 7.0 mph /  11.3 km/h 74 % 0.00 in /  0 mm
01:18 41.0 °F /  5 °C 33.3 °F /  0.7 °C 29.47 in /  997.9 hPa SW 2.6 mph /  4.2 km/h 8.1 mph /  13 km/h 74 % 0.00 in /  0 mm
01:23 41.0 °F /  5 °C 33.3 °F /  0.7 °C 29.47 in /  997.9 hPa SW 4.5 mph /  7.2 km/h 6.9 mph /  11.1 km/h 74 % 0.00 in /  0 mm
01:28 40.9 °F /  4.9 °C 33.2 °F /  0.7 °C 29.47 in /  997.9 hPa SSW 4.0 mph /  6.4 km/h 5.8 mph /  9.3 km/h 74 % 0.00 in /  0 mm
01:38 40.8 °F /  4.9 °C 33.2 °F /  0.7 °C 29.47 in /  997.9 hPa SW 3.0 mph /  4.8 km/h 5.0 mph /  8 km/h 74 % 0.00 in /  0 mm
01:43 40.8 °F /  4.9 °C 33.2 °F /  0.7 °C 29.48 in /  998.2 hPa SW 3.7 mph /  6 km/h 6.9 mph /  11.1 km/h 74 % 0.00 in /  0 mm
01:48 40.8 °F /  4.9 °C 33.2 °F /  0.7 °C 29.48 in /  998.2 hPa SW 4.5 mph /  7.2 km/h 6.9 mph /  11.1 km/h 74 % 0.00 in /  0 mm
01:58 40.8 °F /  4.9 °C 33.2 °F /  0.7 °C 29.49 in /  998.5 hPa SSW 4.8 mph /  7.7 km/h 8.1 mph /  13 km/h 74 % 0.00 in /  0 mm
02:08 40.9 °F /  4.9 °C 32.9 °F /  0.5 °C 29.49 in /  998.5 hPa WSW 3.9 mph /  6.3 km/h 10.0 mph /  16.1 km/h 73 % 0.00 in /  0 mm
02:13 40.9 °F /  4.9 °C 32.9 °F /  0.5 °C 29.49 in /  998.5 hPa SW 2.2 mph /  3.5 km/h 9.2 mph /  14.8 km/h 73 % 0.00 in /  0 mm
02:18 40.9 °F /  4.9 °C 32.9 °F /  0.5 °C 29.49 in /  998.5 hPa SW 5.2 mph /  8.4 km/h 8.1 mph /  13 km/h 73 % 0.00 in /  0 mm
02:23 40.9 °F /  4.9 °C 32.9 °F /  0.5 °C 29.49 in /  998.5 hPa WSW 4.3 mph /  6.9 km/h 8.1 mph /  13 km/h 73 % 0.00 in /  0 mm
02:28 41.0 °F /  5 °C 33.0 °F /  0.6 °C 29.49 in /  998.5 hPa SW 4.5 mph /  7.2 km/h 5.8 mph /  9.3 km/h 73 % 0.00 in /  0 mm
02:38 40.9 °F /  4.9 °C 32.9 °F /  0.5 °C 29.49 in /  998.5 hPa West 6.1 mph /  9.8 km/h 13.0 mph /  20.9 km/h 73 % 0.00 in /  0 mm
02:43 41.0 °F /  5 °C 33.0 °F /  0.6 °C 29.49 in /  998.5 hPa WSW 5.5 mph /  8.9 km/h 5.5 mph /  8.9 km/h 73 % 0.00 in /  0 mm
02:49 41.0 °F /  5 °C 33.0 °F /  0.6 °C 29.49 in /  998.5 hPa SW 5.8 mph /  9.3 km/h 9.2 mph /  14.8 km/h 73 % 0.00 in /  0 mm
02:54 41.0 °F /  5 °C 33.0 °F /  0.6 °C 29.50 in /  998.9 hPa SW 4.8 mph /  7.7 km/h 6.9 mph /  11.1 km/h 73 % 0.00 in /  0 mm
02:59 41.0 °F /  5 °C 33.0 °F /  0.6 °C 29.49 in /  998.5 hPa West 3.2 mph /  5.1 km/h 8.1 mph /  13 km/h 73 % 0.00 in /  0 mm
03:09 41.0 °F /  5 °C 33.0 °F /  0.6 °C 29.49 in /  998.5 hPa WSW 2.3 mph /  3.7 km/h 5.8 mph /  9.3 km/h 73 % 0.00 in /  0 mm
03:14 41.1 °F /  5.1 °C 33.1 °F /  0.6 °C 29.50 in /  998.9 hPa SW 3.3 mph /  5.3 km/h 4.6 mph /  7.4 km/h 73 % 0.00 in /  0 mm
03:19 41.0 °F /  5 °C 33.0 °F /  0.6 °C 29.50 in /  998.9 hPa SSW 4.3 mph /  6.9 km/h 8.1 mph /  13 km/h 73 % 0.00 in /  0 mm
03:29 41.0 °F /  5 °C 33.0 °F /  0.6 °C 29.50 in /  998.9 hPa SW 3.1 mph /  5 km/h 4.6 mph /  7.4 km/h 73 % 0.00 in /  0 mm
03:39 41.0 °F /  5 °C 33.0 °F /  0.6 °C 29.50 in /  998.9 hPa WSW 3.7 mph /  6 km/h 7.0 mph /  11.3 km/h 73 % 0.00 in /  0 mm
03:44 41.1 °F /  5.1 °C 33.1 °F /  0.6 °C 29.50 in /  998.9 hPa SSW 3.3 mph /  5.3 km/h 10.0 mph /  16.1 km/h 73 % 0.00 in /  0 mm
03:49 41.2 °F /  5.1 °C 33.2 °F /  0.7 °C 29.50 in /  998.9 hPa WSW 2.9 mph /  4.7 km/h 4.6 mph /  7.4 km/h 73 % 0.00 in /  0 mm
03:54 41.4 °F /  5.2 °C 33.4 °F /  0.8 °C 29.50 in /  998.9 hPa West 6.5 mph /  10.5 km/h 11.5 mph /  18.5 km/h 73 % 0.00 in /  0 mm
03:59 41.4 °F /  5.2 °C 33.0 °F /  0.6 °C 29.50 in /  998.9 hPa WNW 1.8 mph /  2.9 km/h 5.8 mph /  9.3 km/h 72 % 0.00 in /  0 mm
04:09 41.6 °F /  5.3 °C 33.2 °F /  0.7 °C 29.50 in /  998.9 hPa WNW 2.3 mph /  3.7 km/h 12.7 mph /  20.4 km/h 72 % 0.00 in /  0 mm
04:14 41.7 °F /  5.4 °C 33.3 °F /  0.7 °C 29.51 in /  999.2 hPa WSW 4.3 mph /  6.9 km/h 11.5 mph /  18.5 km/h 72 % 0.00 in /  0 mm
04:19 41.8 °F /  5.4 °C 33.4 °F /  0.8 °C 29.51 in /  999.2 hPa SW 5.5 mph /  8.9 km/h 8.1 mph /  13 km/h 72 % 0.00 in /  0 mm
04:34 42.0 °F /  5.6 °C 33.6 °F /  0.9 °C 29.51 in /  999.2 hPa SW 5.0 mph /  8 km/h 8.1 mph /  13 km/h 72 % 0.00 in /  0 mm
04:39 42.0 °F /  5.6 °C 33.6 °F /  0.9 °C 29.51 in /  999.2 hPa SW 3.5 mph /  5.6 km/h 8.0 mph /  12.9 km/h 72 % 0.00 in /  0 mm
04:44 42.0 °F /  5.6 °C 33.6 °F /  0.9 °C 29.52 in /  999.5 hPa SW 6.0 mph /  9.7 km/h 9.2 mph /  14.8 km/h 72 % 0.00 in /  0 mm
04:49 41.9 °F /  5.5 °C 33.5 °F /  0.8 °C 29.52 in /  999.5 hPa SW 3.3 mph /  5.3 km/h 6.9 mph /  11.1 km/h 72 % 0.00 in /  0 mm
04:55 41.9 °F /  5.5 °C 33.5 °F /  0.8 °C 29.52 in /  999.5 hPa WSW 2.2 mph /  3.5 km/h 6.0 mph /  9.7 km/h 72 % 0.00 in /  0 mm
05:00 41.9 °F /  5.5 °C 33.5 °F /  0.8 °C 29.52 in /  999.5 hPa WSW 4.8 mph /  7.7 km/h 6.9 mph /  11.1 km/h 72 % 0.00 in /  0 mm
05:05 41.8 °F /  5.4 °C 33.8 °F /  1 °C 29.52 in /  999.5 hPa WSW 4.9 mph /  7.9 km/h 8.1 mph /  13 km/h 73 % 0.00 in /  0 mm
05:10 41.9 °F /  5.5 °C 33.9 °F /  1.1 °C 29.53 in /  999.9 hPa WSW 6.5 mph /  10.5 km/h 11.5 mph /  18.5 km/h 73 % 0.00 in /  0 mm
05:15 42.0 °F /  5.6 °C 34.0 °F /  1.1 °C 29.53 in /  999.9 hPa West 2.1 mph /  3.4 km/h 4.6 mph /  7.4 km/h 73 % 0.00 in /  0 mm
05:20 42.0 °F /  5.6 °C 34.0 °F /  1.1 °C 29.53 in /  999.9 hPa WNW 6.4 mph /  10.3 km/h 13.0 mph /  20.9 km/h 73 % 0.00 in /  0 mm
05:25 42.1 °F /  5.6 °C 33.7 °F /  0.9 °C 29.54 in /  1000.2 hPa WSW 1.6 mph /  2.6 km/h 5.0 mph /  8 km/h 72 % 0.00 in /  0 mm
05:30 42.2 °F /  5.7 °C 33.8 °F /  1 °C 29.54 in /  1000.2 hPa WSW 4.3 mph /  6.9 km/h 8.1 mph /  13 km/h 72 % 0.00 in /  0 mm
05:35 42.3 °F /  5.7 °C 33.9 °F /  1.1 °C 29.54 in /  1000.2 hPa WSW 6.2 mph /  10 km/h 10.4 mph /  16.7 km/h 72 % 0.00 in /  0 mm
05:40 42.4 °F /  5.8 °C 34.0 °F /  1.1 °C 29.54 in /  1000.2 hPa West 4.9 mph /  7.9 km/h 9.2 mph /  14.8 km/h 72 % 0.00 in /  0 mm
05:45 42.4 °F /  5.8 °C 33.7 °F /  0.9 °C 29.54 in /  1000.2 hPa WSW 6.5 mph /  10.5 km/h 11.5 mph /  18.5 km/h 71 % 0.00 in /  0 mm
05:50 42.4 °F /  5.8 °C 33.7 °F /  0.9 °C 29.55 in /  1000.6 hPa WNW 6.3 mph /  10.1 km/h 8.1 mph /  13 km/h 71 % 0.00 in /  0 mm
05:55 42.4 °F /  5.8 °C 33.3 °F /  0.7 °C 29.55 in /  1000.6 hPa SW 5.4 mph /  8.7 km/h 11.0 mph /  17.7 km/h 70 % 0.00 in /  0 mm
06:00 42.5 °F /  5.8 °C 33.4 °F /  0.8 °C 29.56 in /  1000.9 hPa NW 4.6 mph /  7.4 km/h 11.0 mph /  17.7 km/h 70 % 0.00 in /  0 mm
06:05 42.5 °F /  5.8 °C 33.4 °F /  0.8 °C 29.56 in /  1000.9 hPa WNW 3.8 mph /  6.1 km/h 5.8 mph /  9.3 km/h 70 % 0.00 in /  0 mm
06:10 42.5 °F /  5.8 °C 33.0 °F /  0.6 °C 29.56 in /  1000.9 hPa WNW 4.9 mph /  7.9 km/h 11.5 mph /  18.5 km/h 69 % 0.00 in /  0 mm
06:15 42.4 °F /  5.8 °C 32.9 °F /  0.5 °C 29.56 in /  1000.9 hPa WSW 5.4 mph /  8.7 km/h 9.2 mph /  14.8 km/h 69 % 0.00 in /  0 mm
06:20 42.4 °F /  5.8 °C 32.9 °F /  0.5 °C 29.56 in /  1000.9 hPa WSW 6.2 mph /  10 km/h 10.4 mph /  16.7 km/h 69 % 0.00 in /  0 mm
06:25 42.3 °F /  5.7 °C 32.8 °F /  0.4 °C 29.56 in /  1000.9 hPa WNW 10.8 mph /  17.4 km/h 17.3 mph /  27.8 km/h 69 % 0.00 in /  0 mm
06:30 42.3 °F /  5.7 °C 32.1 °F /  0.1 °C 29.57 in /  1001.2 hPa West 6.2 mph /  10 km/h 11.5 mph /  18.5 km/h 67 % 0.00 in /  0 mm
06:35 42.2 °F /  5.7 °C 31.6 °F /  -0.2 °C 29.57 in /  1001.2 hPa West 7.8 mph /  12.6 km/h 11.5 mph /  18.5 km/h 66 % 0.00 in /  0 mm
06:40 42.0 °F /  5.6 °C 30.3 °F /  -0.9 °C 29.58 in /  1001.6 hPa WNW 7.0 mph /  11.3 km/h 17.3 mph /  27.8 km/h 63 % 0.00 in /  0 mm
06:45 42.0 °F /  5.6 °C 30.7 °F /  -0.7 °C 29.58 in /  1001.6 hPa West 10.2 mph /  16.4 km/h 17.3 mph /  27.8 km/h 64 % 0.00 in /  0 mm
06:50 41.9 °F /  5.5 °C 30.2 °F /  -1 °C 29.58 in /  1001.6 hPa West 7.0 mph /  11.3 km/h 21.0 mph /  33.8 km/h 63 % 0.00 in /  0 mm
06:55 41.9 °F /  5.5 °C 30.2 °F /  -1 °C 29.59 in /  1001.9 hPa West 9.0 mph /  14.5 km/h 20.0 mph /  32.2 km/h 63 % 0.00 in /  0 mm
07:01 41.8 °F /  5.4 °C 30.5 °F /  -0.8 °C 29.58 in /  1001.6 hPa NW 6.2 mph /  10 km/h 12.7 mph /  20.4 km/h 64 % 0.00 in /  0 mm
07:06 41.6 °F /  5.3 °C 30.3 °F /  -0.9 °C 29.60 in /  1002.3 hPa WSW 6.5 mph /  10.5 km/h 11.5 mph /  18.5 km/h 64 % 0.00 in /  0 mm
07:11 41.5 °F /  5.3 °C 30.2 °F /  -1 °C 29.60 in /  1002.3 hPa West 5.2 mph /  8.4 km/h 13.8 mph /  22.2 km/h 64 % 0.00 in /  0 mm
07:16 41.4 °F /  5.2 °C 30.1 °F /  -1.1 °C 29.60 in /  1002.3 hPa WNW 5.3 mph /  8.5 km/h 11.0 mph /  17.7 km/h 64 % 0.00 in /  0 mm
07:21 41.3 °F /  5.2 °C 30.0 °F /  -1.1 °C 29.61 in /  1002.6 hPa NW 10.3 mph /  16.6 km/h 17.3 mph /  27.8 km/h 64 % 0.00 in /  0 mm
07:26 41.2 °F /  5.1 °C 29.9 °F /  -1.2 °C 29.61 in /  1002.6 hPa West 8.8 mph /  14.2 km/h 15.0 mph /  24.1 km/h 64 % 0.00 in /  0 mm
07:31 41.1 °F /  5.1 °C 30.2 °F /  -1 °C 29.61 in /  1002.6 hPa WSW 3.1 mph /  5 km/h 9.2 mph /  14.8 km/h 65 % 0.00 in /  0 mm
07:36 41.0 °F /  5 °C 30.1 °F /  -1.1 °C 29.61 in /  1002.6 hPa NW 6.9 mph /  11.1 km/h 11.5 mph /  18.5 km/h 65 % 0.00 in /  0 mm
07:41 40.9 °F /  4.9 °C 30.4 °F /  -0.9 °C 29.62 in /  1002.9 hPa WSW 4.2 mph /  6.8 km/h 6.9 mph /  11.1 km/h 66 % 0.00 in /  0 mm
07:46 40.9 °F /  4.9 °C 30.4 °F /  -0.9 °C 29.62 in /  1002.9 hPa West 5.5 mph /  8.9 km/h 10.4 mph /  16.7 km/h 66 % 0.00 in /  0 mm
07:51 40.9 °F /  4.9 °C 30.4 °F /  -0.9 °C 29.62 in /  1002.9 hPa West 6.5 mph /  10.5 km/h 9.2 mph /  14.8 km/h 66 % 0.00 in /  0 mm
07:56 40.9 °F /  4.9 °C 30.8 °F /  -0.7 °C 29.63 in /  1003.3 hPa West 4.1 mph /  6.6 km/h 10.4 mph /  16.7 km/h 67 % 0.00 in /  0 mm
08:01 40.9 °F /  4.9 °C 30.8 °F /  -0.7 °C 29.63 in /  1003.3 hPa NW 5.2 mph /  8.4 km/h 7.0 mph /  11.3 km/h 67 % 0.00 in /  0 mm
08:16 40.8 °F /  4.9 °C 30.7 °F /  -0.7 °C 29.64 in /  1003.6 hPa WNW 8.0 mph /  12.9 km/h 17.3 mph /  27.8 km/h 67 % 0.00 in /  0 mm
08:21 40.7 °F /  4.8 °C 30.6 °F /  -0.8 °C 29.65 in /  1003.9 hPa West 6.5 mph /  10.5 km/h 13.8 mph /  22.2 km/h 67 % 0.00 in /  0 mm
08:26 40.6 °F /  4.8 °C 30.5 °F /  -0.8 °C 29.64 in /  1003.6 hPa West 4.2 mph /  6.8 km/h 11.5 mph /  18.5 km/h 67 % 0.00 in /  0 mm
08:31 40.6 °F /  4.8 °C 30.9 °F /  -0.6 °C 29.65 in /  1003.9 hPa NW 7.6 mph /  12.2 km/h 9.2 mph /  14.8 km/h 68 % 0.00 in /  0 mm
08:36 40.5 °F /  4.7 °C 30.4 °F /  -0.9 °C 29.64 in /  1003.6 hPa West 5.7 mph /  9.2 km/h 18.4 mph /  29.6 km/h 67 % 0.00 in /  0 mm
08:41 40.4 °F /  4.7 °C 29.9 °F /  -1.2 °C 29.65 in /  1003.9 hPa WSW 6.5 mph /  10.5 km/h 12.0 mph /  19.3 km/h 66 % 0.00 in /  0 mm
08:46 40.3 °F /  4.6 °C 30.2 °F /  -1 °C 29.66 in /  1004.3 hPa NNW 8.3 mph /  13.4 km/h 8.3 mph /  13.4 km/h 67 % 0.00 in /  0 mm
08:52 40.3 °F /  4.6 °C 30.2 °F /  -1 °C 29.66 in /  1004.3 hPa West 4.5 mph /  7.2 km/h 16.1 mph /  25.9 km/h 67 % 0.00 in /  0 mm
08:57 40.4 °F /  4.7 °C 30.3 °F /  -0.9 °C 29.66 in /  1004.3 hPa West 7.0 mph /  11.3 km/h 11.0 mph /  17.7 km/h 67 % 0.00 in /  0 mm
09:02 40.6 °F /  4.8 °C 30.1 °F /  -1.1 °C 29.66 in /  1004.3 hPa West 8.7 mph /  14 km/h 13.0 mph /  20.9 km/h 66 % 0.00 in /  0 mm
09:12 40.6 °F /  4.8 °C 30.1 °F /  -1.1 °C 29.67 in /  1004.6 hPa WNW 6.1 mph /  9.8 km/h 12.7 mph /  20.4 km/h 66 % 0.00 in /  0 mm
09:17 40.5 °F /  4.7 °C 30.0 °F /  -1.1 °C 29.67 in /  1004.6 hPa WNW 4.9 mph /  7.9 km/h 15.0 mph /  24.1 km/h 66 % 0.00 in /  0 mm
09:22 40.6 °F /  4.8 °C 30.1 °F /  -1.1 °C 29.67 in /  1004.6 hPa NW 1.6 mph /  2.6 km/h 4.6 mph /  7.4 km/h 66 % 0.00 in /  0 mm
09:27 40.6 °F /  4.8 °C 30.1 °F /  -1.1 °C 29.67 in /  1004.6 hPa NW 5.3 mph /  8.5 km/h 9.2 mph /  14.8 km/h 66 % 0.00 in /  0 mm
09:32 40.6 °F /  4.8 °C 30.1 °F /  -1.1 °C 29.68 in /  1005 hPa WNW 5.1 mph /  8.2 km/h 9.2 mph /  14.8 km/h 66 % 0.00 in /  0 mm
09:37 40.5 °F /  4.7 °C 30.0 °F /  -1.1 °C 29.68 in /  1005 hPa West 4.4 mph /  7.1 km/h 10.4 mph /  16.7 km/h 66 % 0.00 in /  0 mm
09:42 40.5 °F /  4.7 °C 30.0 °F /  -1.1 °C 29.69 in /  1005.3 hPa WNW 6.2 mph /  10 km/h 10.4 mph /  16.7 km/h 66 % 0.00 in /  0 mm
09:47 40.6 °F /  4.8 °C 30.1 °F /  -1.1 °C 29.69 in /  1005.3 hPa West 6.4 mph /  10.3 km/h 11.5 mph /  18.5 km/h 66 % 0.00 in /  0 mm
09:52 40.7 °F /  4.8 °C 30.6 °F /  -0.8 °C 29.69 in /  1005.3 hPa WNW 6.2 mph /  10 km/h 10.4 mph /  16.7 km/h 67 % 0.00 in /  0 mm
09:57 40.7 °F /  4.8 °C 30.6 °F /  -0.8 °C 29.69 in /  1005.3 hPa NW 3.6 mph /  5.8 km/h 10.0 mph /  16.1 km/h 67 % 0.00 in /  0 mm
10:02 40.6 °F /  4.8 °C 30.5 °F /  -0.8 °C 29.70 in /  1005.6 hPa NNW 5.2 mph /  8.4 km/h 7.0 mph /  11.3 km/h 67 % 0.00 in /  0 mm
10:07 40.5 °F /  4.7 °C 30.4 °F /  -0.9 °C 29.70 in /  1005.6 hPa West 5.6 mph /  9 km/h 10.4 mph /  16.7 km/h 67 % 0.00 in /  0 mm
10:12 40.3 °F /  4.6 °C 29.8 °F /  -1.2 °C 29.70 in /  1005.6 hPa WSW 7.3 mph /  11.7 km/h 11.5 mph /  18.5 km/h 66 % 0.00 in /  0 mm
10:22 39.8 °F /  4.3 °C 29.7 °F /  -1.3 °C 29.71 in /  1006 hPa WNW 6.1 mph /  9.8 km/h 11.5 mph /  18.5 km/h 67 % 0.00 in /  0 mm
10:27 39.8 °F /  4.3 °C 30.1 °F /  -1.1 °C 29.71 in /  1006 hPa WNW 7.4 mph /  11.9 km/h 9.2 mph /  14.8 km/h 68 % 0.00 in /  0 mm
10:32 39.7 °F /  4.3 °C 30.0 °F /  -1.1 °C 29.71 in /  1006 hPa WNW 6.2 mph /  10 km/h 10.4 mph /  16.7 km/h 68 % 0.00 in /  0 mm
10:37 39.7 °F /  4.3 °C 30.0 °F /  -1.1 °C 29.71 in /  1006 hPa WNW 8.1 mph /  13 km/h 16.1 mph /  25.9 km/h 68 % 0.00 in /  0 mm
10:47 40.0 °F /  4.4 °C 30.3 °F /  -0.9 °C 29.70 in /  1005.6 hPa West 6.9 mph /  11.1 km/h 11.0 mph /  17.7 km/h 68 % 0.00 in /  0 mm
10:58 40.3 °F /  4.6 °C 29.8 °F /  -1.2 °C 29.71 in /  1006 hPa WSW 6.3 mph /  10.1 km/h 13.0 mph /  20.9 km/h 66 % 0.00 in /  0 mm
11:03 40.5 °F /  4.7 °C 29.7 °F /  -1.3 °C 29.70 in /  1005.6 hPa WNW 10.0 mph /  16.1 km/h 18.4 mph /  29.6 km/h 65 % 0.00 in /  0 mm
11:08 40.7 °F /  4.8 °C 29.1 °F /  -1.6 °C 29.70 in /  1005.6 hPa NW 6.5 mph /  10.5 km/h 12.7 mph /  20.4 km/h 63 % 0.00 in /  0 mm
11:13 40.9 °F /  4.9 °C 29.7 °F /  -1.3 °C 29.70 in /  1005.6 hPa NW 4.6 mph /  7.4 km/h 7.0 mph /  11.3 km/h 64 % 0.00 in /  0 mm
11:18 41.0 °F /  5 °C 29.0 °F /  -1.7 °C 29.70 in /  1005.6 hPa NW 8.6 mph /  13.8 km/h 15.0 mph /  24.1 km/h 62 % 0.00 in /  0 mm
11:28 41.2 °F /  5.1 °C 29.5 °F /  -1.4 °C 29.69 in /  1005.3 hPa NNW 10.2 mph /  16.4 km/h 12.7 mph /  20.4 km/h 63 % 0.00 in /  0 mm
11:33 41.1 °F /  5.1 °C 28.7 °F /  -1.8 °C 29.69 in /  1005.3 hPa WNW 5.2 mph /  8.4 km/h 11.0 mph /  17.7 km/h 61 % 0.00 in /  0 mm
11:38 41.0 °F /  5 °C 29.0 °F /  -1.7 °C 29.69 in /  1005.3 hPa WNW 4.2 mph /  6.8 km/h 15.0 mph /  24.1 km/h 62 % 0.00 in /  0 mm
11:43 41.0 °F /  5 °C 29.0 °F /  -1.7 °C 29.70 in /  1005.6 hPa WNW 4.5 mph /  7.2 km/h 11.5 mph /  18.5 km/h 62 % 0.00 in /  0 mm
11:53 40.7 °F /  4.8 °C 28.3 °F /  -2.1 °C 29.69 in /  1005.3 hPa WNW 10.3 mph /  16.6 km/h 17.3 mph /  27.8 km/h 61 % 0.00 in /  0 mm
11:58 40.6 °F /  4.8 °C 28.2 °F /  -2.1 °C 29.68 in /  1005 hPa West 5.1 mph /  8.2 km/h 12.7 mph /  20.4 km/h 61 % 0.00 in /  0 mm
12:03 40.6 °F /  4.8 °C 27.8 °F /  -2.3 °C 29.69 in /  1005.3 hPa WNW 9.3 mph /  15 km/h 16.1 mph /  25.9 km/h 60 % 0.00 in /  0 mm
12:08 40.4 °F /  4.7 °C 28.0 °F /  -2.2 °C 29.69 in /  1005.3 hPa SSW 3.9 mph /  6.3 km/h 15.0 mph /  24.1 km/h 61 % 0.00 in /  0 mm
12:13 40.5 °F /  4.7 °C 28.1 °F /  -2.2 °C 29.69 in /  1005.3 hPa WNW 5.4 mph /  8.7 km/h 15.0 mph /  24.1 km/h 61 % 0.00 in /  0 mm
12:18 40.6 °F /  4.8 °C 27.8 °F /  -2.3 °C 29.69 in /  1005.3 hPa West 5.5 mph /  8.9 km/h 13.0 mph /  20.9 km/h 60 % 0.00 in /  0 mm
12:23 40.8 °F /  4.9 °C 28.0 °F /  -2.2 °C 29.69 in /  1005.3 hPa NNW 6.2 mph /  10 km/h 11.5 mph /  18.5 km/h 60 % 0.00 in /  0 mm
12:28 40.9 °F /  4.9 °C 27.7 °F /  -2.4 °C 29.68 in /  1005 hPa WNW 7.8 mph /  12.6 km/h 19.6 mph /  31.5 km/h 59 % 0.00 in /  0 mm
12:33 41.0 °F /  5 °C 27.3 °F /  -2.6 °C 29.68 in /  1005 hPa WNW 3.8 mph /  6.1 km/h 8.1 mph /  13 km/h 58 % 0.00 in /  0 mm
12:43 41.3 °F /  5.2 °C 28.0 °F /  -2.2 °C 29.69 in /  1005.3 hPa NW 6.7 mph /  10.8 km/h 15.0 mph /  24.1 km/h 59 % 0.00 in /  0 mm
12:48 41.2 °F /  5.1 °C 27.5 °F /  -2.5 °C 29.68 in /  1005 hPa NW 8.4 mph /  13.5 km/h 16.1 mph /  25.9 km/h 58 % 0.00 in /  0 mm
12:54 41.2 °F /  5.1 °C 27.1 °F /  -2.7 °C 29.69 in /  1005.3 hPa WNW 6.6 mph /  10.6 km/h 17.0 mph /  27.4 km/h 57 % 0.00 in /  0 mm
13:14 41.1 °F /  5.1 °C 27.0 °F /  -2.8 °C 29.69 in /  1005.3 hPa WNW 4.8 mph /  7.7 km/h 12.7 mph /  20.4 km/h 57 % 0.00 in /  0 mm
13:19 41.0 °F /  5 °C 26.5 °F /  -3.1 °C 29.69 in /  1005.3 hPa West 6.7 mph /  10.8 km/h 16.1 mph /  25.9 km/h 56 % 0.00 in /  0 mm
13:24 41.0 °F /  5 °C 26.9 °F /  -2.8 °C 29.69 in /  1005.3 hPa WSW 6.0 mph /  9.7 km/h 13.8 mph /  22.2 km/h 57 % 0.00 in /  0 mm
13:29 40.9 °F /  4.9 °C 26.8 °F /  -2.9 °C 29.69 in /  1005.3 hPa WNW 7.7 mph /  12.4 km/h 15.0 mph /  24.1 km/h 57 % 0.00 in /  0 mm
13:34 40.9 °F /  4.9 °C 27.2 °F /  -2.7 °C 29.69 in /  1005.3 hPa North 4.0 mph /  6.4 km/h 9.2 mph /  14.8 km/h 58 % 0.00 in /  0 mm
13:39 40.9 °F /  4.9 °C 26.8 °F /  -2.9 °C 29.69 in /  1005.3 hPa West 8.3 mph /  13.4 km/h 15.0 mph /  24.1 km/h 57 % 0.00 in /  0 mm
13:44 40.7 °F /  4.8 °C 26.6 °F /  -3 °C 29.69 in /  1005.3 hPa NW 9.3 mph /  15 km/h 16.0 mph /  25.7 km/h 57 % 0.00 in /  0 mm
13:49 40.6 °F /  4.8 °C 26.5 °F /  -3.1 °C 29.69 in /  1005.3 hPa NW 8.8 mph /  14.2 km/h 15.0 mph /  24.1 km/h 57 % 0.00 in /  0 mm
13:54 40.5 °F /  4.7 °C 26.4 °F /  -3.1 °C 29.69 in /  1005.3 hPa WNW 8.3 mph /  13.4 km/h 12.7 mph /  20.4 km/h 57 % 0.00 in /  0 mm
13:59 40.4 °F /  4.7 °C 26.4 °F /  -3.1 °C 29.69 in /  1005.3 hPa NW 3.9 mph /  6.3 km/h 10.4 mph /  16.7 km/h 57 % 0.00 in /  0 mm
14:09 40.2 °F /  4.6 °C 25.3 °F /  -3.7 °C 29.70 in /  1005.6 hPa WNW 9.2 mph /  14.8 km/h 20.7 mph /  33.3 km/h 55 % 0.00 in /  0 mm
14:14 40.0 °F /  4.4 °C 26.0 °F /  -3.3 °C 29.70 in /  1005.6 hPa WNW 10.1 mph /  16.3 km/h 18.4 mph /  29.6 km/h 57 % 0.00 in /  0 mm
14:24 39.5 °F /  4.2 °C 25.5 °F /  -3.6 °C 29.71 in /  1006 hPa WNW 3.7 mph /  6 km/h 15.0 mph /  24.1 km/h 57 % 0.00 in /  0 mm
14:29 39.4 °F /  4.1 °C 25.0 °F /  -3.9 °C 29.71 in /  1006 hPa WNW 5.4 mph /  8.7 km/h 15.0 mph /  24.1 km/h 56 % 0.00 in /  0 mm
14:39 38.8 °F /  3.8 °C 25.3 °F /  -3.7 °C 29.72 in /  1006.3 hPa WNW 9.4 mph /  15.1 km/h 13.8 mph /  22.2 km/h 58 % 0.00 in /  0 mm
14:44 38.6 °F /  3.7 °C 25.5 °F /  -3.6 °C 29.73 in /  1006.7 hPa WNW 6.8 mph /  10.9 km/h 17.3 mph /  27.8 km/h 59 % 0.00 in /  0 mm
14:50 38.3 °F /  3.5 °C 24.8 °F /  -4 °C 29.73 in /  1006.7 hPa WNW 5.8 mph /  9.3 km/h 19.6 mph /  31.5 km/h 58 % 0.00 in /  0 mm
14:55 38.1 °F /  3.4 °C 24.6 °F /  -4.1 °C 29.73 in /  1006.7 hPa WSW 11.6 mph /  18.7 km/h 13.8 mph /  22.2 km/h 58 % 0.00 in /  0 mm
15:00 37.8 °F /  3.2 °C 24.3 °F /  -4.3 °C 29.73 in /  1006.7 hPa West 5.6 mph /  9 km/h 11.5 mph /  18.5 km/h 58 % 0.00 in /  0 mm
15:05 37.7 °F /  3.2 °C 23.8 °F /  -4.6 °C 29.73 in /  1006.7 hPa West 11.3 mph /  18.2 km/h 16.1 mph /  25.9 km/h 57 % 0.00 in /  0 mm
15:10 37.5 °F /  3.1 °C 23.6 °F /  -4.7 °C 29.74 in /  1007 hPa NW 7.7 mph /  12.4 km/h 12.7 mph /  20.4 km/h 57 % 0.00 in /  0 mm
15:20 37.2 °F /  2.9 °C 23.8 °F /  -4.6 °C 29.74 in /  1007 hPa WNW 7.9 mph /  12.7 km/h 15.0 mph /  24.1 km/h 58 % 0.00 in /  0 mm
15:25 37.1 °F /  2.8 °C 23.3 °F /  -4.8 °C 29.74 in /  1007 hPa NNW 6.9 mph /  11.1 km/h 12.7 mph /  20.4 km/h 57 % 0.00 in /  0 mm
15:30 37.0 °F /  2.8 °C 23.6 °F /  -4.7 °C 29.75 in /  1007.3 hPa WNW 8.5 mph /  13.7 km/h 12.7 mph /  20.4 km/h 58 % 0.00 in /  0 mm
15:35 36.8 °F /  2.7 °C 23.8 °F /  -4.6 °C 29.74 in /  1007 hPa NNW 5.7 mph /  9.2 km/h 13.8 mph /  22.2 km/h 59 % 0.00 in /  0 mm
15:40 36.8 °F /  2.7 °C 23.8 °F /  -4.6 °C 29.75 in /  1007.3 hPa West 7.9 mph /  12.7 km/h 12.7 mph /  20.4 km/h 59 % 0.00 in /  0 mm
15:45 36.6 °F /  2.6 °C 23.6 °F /  -4.7 °C 29.75 in /  1007.3 hPa WNW 7.5 mph /  12.1 km/h 12.7 mph /  20.4 km/h 59 % 0.00 in /  0 mm
15:50 36.5 °F /  2.5 °C 22.7 °F /  -5.2 °C 29.75 in /  1007.3 hPa WNW 5.6 mph /  9 km/h 13.8 mph /  22.2 km/h 57 % 0.00 in /  0 mm
15:55 36.5 °F /  2.5 °C 23.1 °F /  -4.9 °C 29.76 in /  1007.7 hPa West 5.7 mph /  9.2 km/h 9.2 mph /  14.8 km/h 58 % 0.00 in /  0 mm
16:00 36.4 °F /  2.4 °C 23.0 °F /  -5 °C 29.75 in /  1007.3 hPa West 7.3 mph /  11.7 km/h 15.0 mph /  24.1 km/h 58 % 0.00 in /  0 mm
16:05 36.3 °F /  2.4 °C 22.9 °F /  -5.1 °C 29.76 in /  1007.7 hPa WNW 4.9 mph /  7.9 km/h 11.5 mph /  18.5 km/h 58 % 0.00 in /  0 mm
16:10 36.2 °F /  2.3 °C 22.4 °F /  -5.3 °C 29.76 in /  1007.7 hPa WSW 7.4 mph /  11.9 km/h 12.7 mph /  20.4 km/h 57 % 0.00 in /  0 mm
16:15 36.1 °F /  2.3 °C 22.3 °F /  -5.4 °C 29.76 in /  1007.7 hPa NNW 6.7 mph /  10.8 km/h 12.7 mph /  20.4 km/h 57 % 0.00 in /  0 mm
16:20 36.0 °F /  2.2 °C 22.6 °F /  -5.2 °C 29.76 in /  1007.7 hPa West 4.0 mph /  6.4 km/h 6.9 mph /  11.1 km/h 58 % 0.00 in /  0 mm
16:25 35.8 °F /  2.1 °C 22.9 °F /  -5.1 °C 29.77 in /  1008 hPa NW 3.6 mph /  5.8 km/h 8.1 mph /  13 km/h 59 % 0.00 in /  0 mm
16:30 35.7 °F /  2.1 °C 23.2 °F /  -4.9 °C 29.77 in /  1008 hPa NW 2.9 mph /  4.7 km/h 5.8 mph /  9.3 km/h 60 % 0.00 in /  0 mm
16:35 35.6 °F /  2 °C 23.5 °F /  -4.7 °C 29.77 in /  1008 hPa NW 5.6 mph /  9 km/h 13.8 mph /  22.2 km/h 61 % 0.00 in /  0 mm
16:40 35.4 °F /  1.9 °C 22.9 °F /  -5.1 °C 29.77 in /  1008 hPa WNW 7.9 mph /  12.7 km/h 17.0 mph /  27.4 km/h 60 % 0.00 in /  0 mm
16:46 35.3 °F /  1.8 °C 22.8 °F /  -5.1 °C 29.78 in /  1008.4 hPa WNW 7.5 mph /  12.1 km/h 13.0 mph /  20.9 km/h 60 % 0.00 in /  0 mm
16:51 35.2 °F /  1.8 °C 23.1 °F /  -4.9 °C 29.78 in /  1008.4 hPa WNW 5.0 mph /  8 km/h 9.0 mph /  14.5 km/h 61 % 0.00 in /  0 mm
16:56 35.1 °F /  1.7 °C 23.0 °F /  -5 °C 29.78 in /  1008.4 hPa WNW 3.0 mph /  4.8 km/h 12.0 mph /  19.3 km/h 61 % 0.00 in /  0 mm
17:01 35.0 °F /  1.7 °C 23.3 °F /  -4.8 °C 29.78 in /  1008.4 hPa West 3.6 mph /  5.8 km/h 9.2 mph /  14.8 km/h 62 % 0.00 in /  0 mm
17:06 34.9 °F /  1.6 °C 22.8 °F /  -5.1 °C 29.79 in /  1008.7 hPa NW 6.7 mph /  10.8 km/h 13.8 mph /  22.2 km/h 61 % 0.00 in /  0 mm
17:11 34.7 °F /  1.5 °C 23.0 °F /  -5 °C 29.79 in /  1008.7 hPa WSW 4.3 mph /  6.9 km/h 11.5 mph /  18.5 km/h 62 % 0.00 in /  0 mm
17:16 34.6 °F /  1.4 °C 22.5 °F /  -5.3 °C 29.79 in /  1008.7 hPa WNW 7.6 mph /  12.2 km/h 13.0 mph /  20.9 km/h 61 % 0.00 in /  0 mm
17:21 34.5 °F /  1.4 °C 22.4 °F /  -5.3 °C 29.80 in /  1009 hPa NNW 5.0 mph /  8 km/h 12.0 mph /  19.3 km/h 61 % 0.00 in /  0 mm
17:26 34.4 °F /  1.3 °C 23.1 °F /  -4.9 °C 29.80 in /  1009 hPa NW 6.2 mph /  10 km/h 11.5 mph /  18.5 km/h 63 % 0.00 in /  0 mm
17:31 34.3 °F /  1.3 °C 23.0 °F /  -5 °C 29.80 in /  1009 hPa West 6.3 mph /  10.1 km/h 12.7 mph /  20.4 km/h 63 % 0.00 in /  0 mm
17:36 34.2 °F /  1.2 °C 22.9 °F /  -5.1 °C 29.80 in /  1009 hPa WNW 6.4 mph /  10.3 km/h 10.4 mph /  16.7 km/h 63 % 0.00 in /  0 mm
17:41 34.1 °F /  1.2 °C 22.8 °F /  -5.1 °C 29.80 in /  1009 hPa NW 4.4 mph /  7.1 km/h 11.5 mph /  18.5 km/h 63 % 0.00 in /  0 mm
17:46 34.0 °F /  1.1 °C 22.3 °F /  -5.4 °C 29.81 in /  1009.4 hPa WNW 4.6 mph /  7.4 km/h 9.0 mph /  14.5 km/h 62 % 0.00 in /  0 mm
17:51 33.9 °F /  1.1 °C 22.2 °F /  -5.4 °C 29.81 in /  1009.4 hPa WNW 5.5 mph /  8.9 km/h 8.1 mph /  13 km/h 62 % 0.00 in /  0 mm
17:56 33.7 °F /  0.9 °C 22.1 °F /  -5.5 °C 29.81 in /  1009.4 hPa NW 8.0 mph /  12.9 km/h 12.7 mph /  20.4 km/h 62 % 0.00 in /  0 mm
18:01 33.7 °F /  0.9 °C 22.1 °F /  -5.5 °C 29.81 in /  1009.4 hPa NW 3.8 mph /  6.1 km/h 11.5 mph /  18.5 km/h 62 % 0.00 in /  0 mm
18:06 33.6 °F /  0.9 °C 22.3 °F /  -5.4 °C 29.82 in /  1009.7 hPa West 2.9 mph /  4.7 km/h 11.5 mph /  18.5 km/h 63 % 0.00 in /  0 mm
18:11 33.5 °F /  0.8 °C 21.9 °F /  -5.6 °C 29.82 in /  1009.7 hPa NW 5.1 mph /  8.2 km/h 11.5 mph /  18.5 km/h 62 % 0.00 in /  0 mm
18:16 33.4 °F /  0.8 °C 22.1 °F /  -5.5 °C 29.82 in /  1009.7 hPa WNW 6.9 mph /  11.1 km/h 6.9 mph /  11.1 km/h 63 % 0.00 in /  0 mm
18:21 33.4 °F /  0.8 °C 22.1 °F /  -5.5 °C 29.82 in /  1009.7 hPa NW 5.0 mph /  8 km/h 9.0 mph /  14.5 km/h 63 % 0.00 in /  0 mm
18:26 33.3 °F /  0.7 °C 22.1 °F /  -5.5 °C 29.82 in /  1009.7 hPa WNW 5.1 mph /  8.2 km/h 11.5 mph /  18.5 km/h 63 % 0.00 in /  0 mm
18:31 33.2 °F /  0.7 °C 21.6 °F /  -5.8 °C 29.82 in /  1009.7 hPa WNW 7.5 mph /  12.1 km/h 11.5 mph /  18.5 km/h 62 % 0.00 in /  0 mm
18:36 33.2 °F /  0.7 °C 22.3 °F /  -5.4 °C 29.82 in /  1009.7 hPa NW 6.0 mph /  9.7 km/h 12.7 mph /  20.4 km/h 64 % 0.00 in /  0 mm
18:42 33.1 °F /  0.6 °C 21.9 °F /  -5.6 °C 29.82 in /  1009.7 hPa WNW 6.3 mph /  10.1 km/h 10.0 mph /  16.1 km/h 63 % 0.00 in /  0 mm
18:47 33.1 °F /  0.6 °C 21.9 °F /  -5.6 °C 29.82 in /  1009.7 hPa WNW 4.8 mph /  7.7 km/h 10.4 mph /  16.7 km/h 63 % 0.00 in /  0 mm
18:52 33.0 °F /  0.6 °C 21.4 °F /  -5.9 °C 29.82 in /  1009.7 hPa NW 5.2 mph /  8.4 km/h 12.7 mph /  20.4 km/h 62 % 0.00 in /  0 mm
18:57 32.9 °F /  0.5 °C 21.7 °F /  -5.7 °C 29.83 in /  1010 hPa West 4.7 mph /  7.6 km/h 14.0 mph /  22.5 km/h 63 % 0.00 in /  0 mm
19:02 32.8 °F /  0.4 °C 21.2 °F /  -6 °C 29.83 in /  1010 hPa NW 7.1 mph /  11.4 km/h 12.7 mph /  20.4 km/h 62 % 0.00 in /  0 mm
19:07 32.6 °F /  0.3 °C 21.0 °F /  -6.1 °C 29.83 in /  1010 hPa NW 7.1 mph /  11.4 km/h 17.3 mph /  27.8 km/h 62 % 0.00 in /  0 mm
19:12 32.6 °F /  0.3 °C 21.0 °F /  -6.1 °C 29.83 in /  1010 hPa WNW 6.8 mph /  10.9 km/h 12.7 mph /  20.4 km/h 62 % 0.00 in /  0 mm
19:17 32.4 °F /  0.2 °C 21.2 °F /  -6 °C 29.82 in /  1009.7 hPa West 10.4 mph /  16.7 km/h 18.4 mph /  29.6 km/h 63 % 0.00 in /  0 mm
19:22 32.4 °F /  0.2 °C 21.2 °F /  -6 °C 29.83 in /  1010 hPa North 3.3 mph /  5.3 km/h 15.0 mph /  24.1 km/h 63 % 0.00 in /  0 mm
19:27 32.3 °F /  0.2 °C 21.1 °F /  -6.1 °C 29.83 in /  1010 hPa WNW 5.4 mph /  8.7 km/h 11.5 mph /  18.5 km/h 63 % 0.00 in /  0 mm
19:32 32.2 °F /  0.1 °C 21.0 °F /  -6.1 °C 29.83 in /  1010 hPa NW 5.0 mph /  8 km/h 12.0 mph /  19.3 km/h 63 % 0.00 in /  0 mm
19:37 32.1 °F /  0.1 °C 20.9 °F /  -6.2 °C 29.84 in /  1010.4 hPa NNW 6.6 mph /  10.6 km/h 15.0 mph /  24.1 km/h 63 % 0.00 in /  0 mm
19:42 32.0 °F /  0 °C 20.8 °F /  -6.2 °C 29.84 in /  1010.4 hPa WNW 5.7 mph /  9.2 km/h 10.4 mph /  16.7 km/h 63 % 0.00 in /  0 mm
19:47 31.9 °F /  -0.1 °C 21.5 °F /  -5.8 °C 29.84 in /  1010.4 hPa NW 3.9 mph /  6.3 km/h 6.9 mph /  11.1 km/h 65 % 0.00 in /  0 mm
19:52 31.8 °F /  -0.1 °C 21.0 °F /  -6.1 °C 29.84 in /  1010.4 hPa WNW 5.3 mph /  8.5 km/h 11.5 mph /  18.5 km/h 64 % 0.00 in /  0 mm
19:57 31.7 °F /  -0.2 °C 20.5 °F /  -6.4 °C 29.84 in /  1010.4 hPa NW 4.7 mph /  7.6 km/h 15.0 mph /  24.1 km/h 63 % 0.00 in /  0 mm
20:02 31.7 °F /  -0.2 °C 20.5 °F /  -6.4 °C 29.84 in /  1010.4 hPa NNW 5.7 mph /  9.2 km/h 9.2 mph /  14.8 km/h 63 % 0.00 in /  0 mm
20:07 31.6 °F /  -0.2 °C 20.4 °F /  -6.4 °C 29.85 in /  1010.7 hPa NNW 6.1 mph /  9.8 km/h 11.5 mph /  18.5 km/h 63 % 0.00 in /  0 mm
20:12 31.5 °F /  -0.3 °C 20.7 °F /  -6.3 °C 29.85 in /  1010.7 hPa NNW 6.4 mph /  10.3 km/h 10.4 mph /  16.7 km/h 64 % 0.00 in /  0 mm
20:17 31.4 °F /  -0.3 °C 20.2 °F /  -6.6 °C 29.85 in /  1010.7 hPa North 6.2 mph /  10 km/h 19.6 mph /  31.5 km/h 63 % 0.00 in /  0 mm
20:22 31.4 °F /  -0.3 °C 20.6 °F /  -6.3 °C 29.85 in /  1010.7 hPa NW 6.3 mph /  10.1 km/h 12.7 mph /  20.4 km/h 64 % 0.00 in /  0 mm
20:27 31.3 °F /  -0.4 °C 20.2 °F /  -6.6 °C 29.85 in /  1010.7 hPa NW 6.8 mph /  10.9 km/h 13.8 mph /  22.2 km/h 63 % 0.00 in /  0 mm
20:32 31.2 °F /  -0.4 °C 20.4 °F /  -6.4 °C 29.85 in /  1010.7 hPa NW 6.3 mph /  10.1 km/h 11.5 mph /  18.5 km/h 64 % 0.00 in /  0 mm
20:37 31.1 °F /  -0.5 °C 20.3 °F /  -6.5 °C 29.85 in /  1010.7 hPa NW 6.8 mph /  10.9 km/h 14.0 mph /  22.5 km/h 64 % 0.00 in /  0 mm
20:43 31.0 °F /  -0.6 °C 19.9 °F /  -6.7 °C 29.85 in /  1010.7 hPa NW 8.1 mph /  13 km/h 12.7 mph /  20.4 km/h 63 % 0.00 in /  0 mm
20:48 30.9 °F /  -0.6 °C 20.1 °F /  -6.6 °C 29.86 in /  1011.1 hPa NW 5.2 mph /  8.4 km/h 12.7 mph /  20.4 km/h 64 % 0.00 in /  0 mm
20:53 30.8 °F /  -0.7 °C 20.0 °F /  -6.7 °C 29.86 in /  1011.1 hPa West 4.3 mph /  6.9 km/h 12.7 mph /  20.4 km/h 64 % 0.00 in /  0 mm
20:58 30.7 °F /  -0.7 °C 20.0 °F /  -6.7 °C 29.86 in /  1011.1 hPa NW 7.1 mph /  11.4 km/h 15.0 mph /  24.1 km/h 64 % 0.00 in /  0 mm
21:03 30.6 °F /  -0.8 °C 19.9 °F /  -6.7 °C 29.86 in /  1011.1 hPa WNW 8.7 mph /  14 km/h 16.1 mph /  25.9 km/h 64 % 0.00 in /  0 mm
21:08 30.5 °F /  -0.8 °C 19.8 °F /  -6.8 °C 29.86 in /  1011.1 hPa NW 4.6 mph /  7.4 km/h 11.5 mph /  18.5 km/h 64 % 0.00 in /  0 mm
21:13 30.5 °F /  -0.8 °C 20.1 °F /  -6.6 °C 29.86 in /  1011.1 hPa WNW 5.2 mph /  8.4 km/h 11.5 mph /  18.5 km/h 65 % 0.00 in /  0 mm
21:18 30.4 °F /  -0.9 °C 19.7 °F /  -6.8 °C 29.87 in /  1011.4 hPa NW 5.9 mph /  9.5 km/h 11.5 mph /  18.5 km/h 64 % 0.00 in /  0 mm
21:23 30.3 °F /  -0.9 °C 19.6 °F /  -6.9 °C 29.87 in /  1011.4 hPa NNW 5.0 mph /  8 km/h 9.2 mph /  14.8 km/h 64 % 0.00 in /  0 mm
21:28 30.3 °F /  -0.9 °C 19.9 °F /  -6.7 °C 29.87 in /  1011.4 hPa NW 3.8 mph /  6.1 km/h 8.1 mph /  13 km/h 65 % 0.00 in /  0 mm
21:33 30.2 °F /  -1 °C 19.8 °F /  -6.8 °C 29.88 in /  1011.7 hPa NW 6.2 mph /  10 km/h 9.2 mph /  14.8 km/h 65 % 0.00 in /  0 mm
21:38 30.1 °F /  -1.1 °C 19.4 °F /  -7 °C 29.88 in /  1011.7 hPa NNW 5.7 mph /  9.2 km/h 12.7 mph /  20.4 km/h 64 % 0.00 in /  0 mm
21:43 30.1 °F /  -1.1 °C 19.4 °F /  -7 °C 29.88 in /  1011.7 hPa NNW 6.6 mph /  10.6 km/h 11.5 mph /  18.5 km/h 64 % 0.00 in /  0 mm
21:48 30.0 °F /  -1.1 °C 18.9 °F /  -7.3 °C 29.88 in /  1011.7 hPa NW 7.1 mph /  11.4 km/h 13.8 mph /  22.2 km/h 63 % 0.00 in /  0 mm
21:53 29.9 °F /  -1.2 °C 19.2 °F /  -7.1 °C 29.88 in /  1011.7 hPa NNW 4.0 mph /  6.4 km/h 11.5 mph /  18.5 km/h 64 % 0.00 in /  0 mm
21:58 29.9 °F /  -1.2 °C 19.2 °F /  -7.1 °C 29.88 in /  1011.7 hPa NNW 6.7 mph /  10.8 km/h 12.0 mph /  19.3 km/h 64 % 0.00 in /  0 mm
22:03 29.8 °F /  -1.2 °C 19.5 °F /  -6.9 °C 29.88 in /  1011.7 hPa NW 3.3 mph /  5.3 km/h 8.1 mph /  13 km/h 65 % 0.00 in /  0 mm
22:08 29.8 °F /  -1.2 °C 19.5 °F /  -6.9 °C 29.89 in /  1012.1 hPa NNW 5.3 mph /  8.5 km/h 10.4 mph /  16.7 km/h 65 % 0.00 in /  0 mm
22:13 29.7 °F /  -1.3 °C 19.4 °F /  -7 °C 29.89 in /  1012.1 hPa NW 6.1 mph /  9.8 km/h 8.1 mph /  13 km/h 65 % 0.00 in /  0 mm
22:18 29.6 °F /  -1.3 °C 19.3 °F /  -7.1 °C 29.89 in /  1012.1 hPa WNW 4.6 mph /  7.4 km/h 10.4 mph /  16.7 km/h 65 % 0.00 in /  0 mm
22:23 29.6 °F /  -1.3 °C 19.3 °F /  -7.1 °C 29.89 in /  1012.1 hPa NW 4.5 mph /  7.2 km/h 11.5 mph /  18.5 km/h 65 % 0.00 in /  0 mm
22:28 29.5 °F /  -1.4 °C 19.2 °F /  -7.1 °C 29.89 in /  1012.1 hPa NNW 3.7 mph /  6 km/h 9.2 mph /  14.8 km/h 65 % 0.00 in /  0 mm
22:33 29.4 °F /  -1.4 °C 18.7 °F /  -7.4 °C 29.89 in /  1012.1 hPa WNW 7.6 mph /  12.2 km/h 9.2 mph /  14.8 km/h 64 % 0.00 in /  0 mm
22:38 29.3 °F /  -1.5 °C 18.6 °F /  -7.4 °C 29.90 in /  1012.4 hPa NW 8.7 mph /  14 km/h 13.8 mph /  22.2 km/h 64 % 0.00 in /  0 mm
22:43 29.3 °F /  -1.5 °C 18.6 °F /  -7.4 °C 29.90 in /  1012.4 hPa WNW 4.3 mph /  6.9 km/h 8.1 mph /  13 km/h 64 % 0.00 in /  0 mm
22:49 29.2 °F /  -1.6 °C 18.5 °F /  -7.5 °C 29.90 in /  1012.4 hPa WNW 2.5 mph /  4 km/h 8.1 mph /  13 km/h 64 % 0.00 in /  0 mm
22:54 29.1 °F /  -1.6 °C 18.4 °F /  -7.6 °C 29.90 in /  1012.4 hPa NW 4.3 mph /  6.9 km/h 12.7 mph /  20.4 km/h 64 % 0.00 in /  0 mm
22:59 29.0 °F /  -1.7 °C 18.3 °F /  -7.6 °C 29.90 in /  1012.4 hPa West 4.0 mph /  6.4 km/h 9.2 mph /  14.8 km/h 64 % 0.00 in /  0 mm
23:04 28.9 °F /  -1.7 °C 18.2 °F /  -7.7 °C 29.90 in /  1012.4 hPa NW 3.6 mph /  5.8 km/h 7.0 mph /  11.3 km/h 64 % 0.00 in /  0 mm
23:09 28.9 °F /  -1.7 °C 18.2 °F /  -7.7 °C 29.90 in /  1012.4 hPa North 2.2 mph /  3.5 km/h 10.4 mph /  16.7 km/h 64 % 0.00 in /  0 mm
23:14 28.8 °F /  -1.8 °C 18.5 °F /  -7.5 °C 29.90 in /  1012.4 hPa NW 2.7 mph /  4.3 km/h 9.2 mph /  14.8 km/h 65 % 0.00 in /  0 mm
23:19 28.7 °F /  -1.8 °C 18.1 °F /  -7.7 °C 29.90 in /  1012.4 hPa NNW 2.8 mph /  4.5 km/h 10.4 mph /  16.7 km/h 64 % 0.00 in /  0 mm
23:24 28.7 °F /  -1.8 °C 18.8 °F /  -7.3 °C 29.91 in /  1012.8 hPa West 3.8 mph /  6.1 km/h 8.0 mph /  12.9 km/h 66 % 0.00 in /  0 mm
23:29 28.6 °F /  -1.9 °C 18.3 °F /  -7.6 °C 29.90 in /  1012.4 hPa NW 3.2 mph /  5.1 km/h 5.8 mph /  9.3 km/h 65 % 0.00 in /  0 mm
23:34 28.5 °F /  -1.9 °C 18.6 °F /  -7.4 °C 29.90 in /  1012.4 hPa NNW 2.7 mph /  4.3 km/h 8.1 mph /  13 km/h 66 % 0.00 in /  0 mm
23:39 28.5 °F /  -1.9 °C 18.6 °F /  -7.4 °C 29.90 in /  1012.4 hPa NW 2.5 mph /  4 km/h 5.0 mph /  8 km/h 66 % 0.00 in /  0 mm
23:44 28.4 °F /  -2 °C 18.5 °F /  -7.5 °C 29.90 in /  1012.4 hPa NNW 5.2 mph /  8.4 km/h 9.2 mph /  14.8 km/h 66 % 0.00 in /  0 mm
23:49 28.3 °F /  -2.1 °C 18.4 °F /  -7.6 °C 29.90 in /  1012.4 hPa NW 4.1 mph /  6.6 km/h 6.9 mph /  11.1 km/h 66 % 0.00 in /  0 mm
23:54 28.2 °F /  -2.1 °C 18.6 °F /  -7.4 °C 29.90 in /  1012.4 hPa NNE 5.6 mph /  9 km/h 10.4 mph /  16.7 km/h 67 % 0.00 in /  0 mm
23:59 28.1 °F /  -2.2 °C 19.2 °F /  -7.1 °C 29.91 in /  1012.8 hPa North 3.8 mph /  6.1 km/h 9.2 mph /  14.8 km/h 69 % 0.00 in /  0 mm
Crab Meadow Weather
Compliments of Weather Underground - 2.75 mb

Script developed by  Jim McMurry - jmcmurry@mwt.net Adapted for the template by  Wim van der Kuil - Leuven-Template.eu

Temperature: You can tell the temperature by counting the clicks a cricket makes in 15 seconds and adding 37!